Boyne Falls, MI

3:14 AM EDT on June 23, 2017 (GMT -0400)
Boyne Mountain Resort | | Change Station

Elev 724 ft 45.16 °N, 84.93 °W | Updated 2 minutes ago

Overcast
Overcast
66.0 °F
Feels Like 66.0 °F
N
0.0
Wind Variable Wind from SSE

Today
High -- | Low -- °F
--% Chance of Precip.
Yesterday
High -- | Low -- °F
Precip. -- in
Pressure 29.64 in
Visibility 5.0 miles
Clouds Mostly Cloudy 400 ft
Mostly Cloudy 4200 ft
Overcast 4900 ft
Dew Point 65 °F
Humidity 96%
Rainfall Not available.
Snow Depth Not available.
5:52 AM 9:31 PM
Waning Crescent, 1% visible
METAR KGLR 230653Z AUTO 23004KT 5SM -RA BR BKN004 BKN042 OVC049 18/17 A2966 RMK AO2 RAE06B28 SLP037 P0003 T01830167
Pressure 29.64 in
Visibility 5.0 miles
Clouds Mostly Cloudy 400 ft
Mostly Cloudy 4200 ft
Overcast 4900 ft
Dew Point 65 °F
Humidity 96%
Rainfall Not available.
Snow Depth Not available.
5:52 AM 9:31 PM
Waning Crescent, 1% visible
METAR KGLR 230653Z AUTO 23004KT 5SM -RA BR BKN004 BKN042 OVC049 18/17 A2966 RMK AO2 RAE06B28 SLP037 P0003 T01830167

Get Severe Weather Alerts

Thanks for signing up!

Be on the lookout for a verification email in your inbox.

You'll start receiving the daily forecast at 6 AM.

×

10-Day Weather Forecast

Almanac

Astronomy

Jun. 23, 2017 Rise Set
Actual Time
Civil Twilight
Nautical Twilight
Astronomical Twilight
Moon
Length of Visible Light
Length of Day
Tomorrow will be .
, % of the Moon is Illuminated

Today's Extremes

State Highs State Lows

Community

WunderPhotos

Category 6

Welcome to Category 6. This is the collective home for Weather Underground's featured writeups by Dr. Jeff Masters (right), Bob Henson (left), Chris Burt, and other regular contributors.

Nearby

Air Quality

  Air Quality AQ Index Pollutant
Not available.

Snow Depth

Station Depth Elevation

Earthquake Activity

City Distance Mag. Time & Date
Minimum magnitude displayed is 2.5.

Coastal Water Temperatures

Place Temperature

Stations

Nearby Weather Stations

Station Location Temp. Windchill Dew Point Humidity Wind Precip. Elev Updated Type
                   

Watches & Warnings

There are currently no watches in effect.